Temperatura - Umidità - Pioggia orarie dal 27-05-2020 al 04-06-2020

Intensità - Direzione vento orarie dal 27-05-2020 al 04-06-2020

Dati orari da stazione meteo dal 27-05-2020 al 04-06-2020

Nome Stazione Data Ora Temperatura [°C] Umidità [%] Pioggia [mm] Intensità vento[km/h] Direzione vento [°]
Savigliano 27-05-2020 02:00 16.9 70.4 0 0 252
Savigliano 27-05-2020 03:00 17.3 74.1 0 0 290
Savigliano 27-05-2020 04:00 16.8 74.1 0 0 324
Savigliano 27-05-2020 05:00 16 71.7 0 0 95
Savigliano 27-05-2020 06:00 14.7 72.4 0 0 323
Savigliano 27-05-2020 07:00 14.4 70.2 0 0 310
Savigliano 27-05-2020 08:00 15.1 68.3 0 0 311
Savigliano 27-05-2020 09:00 17.1 61.6 0 0 273
Savigliano 27-05-2020 10:00 19.2 53.5 0 0 195
Savigliano 27-05-2020 11:00 21.7 46.7 0 2.2 261
Savigliano 27-05-2020 12:00 21.7 44.9 0 2.5 178
Savigliano 27-05-2020 13:00 22.1 45 0 2.2 171
Savigliano 27-05-2020 14:00 22.3 43.5 0 1.4 207
Savigliano 27-05-2020 15:00 22.3 45.1 0 1.1 137
Savigliano 27-05-2020 16:00 22.3 45 0 1.4 68
Savigliano 27-05-2020 17:00 23.1 44.8 0 1.4 145
Savigliano 27-05-2020 18:00 23.4 42.9 0 1.1 213
Savigliano 27-05-2020 19:00 22.5 44.6 0 0.4 191
Savigliano 27-05-2020 20:00 22.3 45 0 0 102
Savigliano 27-05-2020 21:00 21.1 48.7 0 0 0
Savigliano 27-05-2020 22:00 19.8 56.5 0 0 0
Savigliano 27-05-2020 23:00 18.3 60.8 0 0.4 156
Savigliano 28-05-2020 00:00 16.5 69 0 1.1 257
Savigliano 28-05-2020 01:00 14.5 73.9 0 0 185
Savigliano 28-05-2020 02:00 13.7 80.7 0 0.7 159
Savigliano 28-05-2020 03:00 12.7 80.6 0 0.4 162
Savigliano 28-05-2020 04:00 12.1 81.4 0 0.4 163
Savigliano 28-05-2020 05:00 12.3 86.6 0 0.4 162
Savigliano 28-05-2020 06:00 11.9 86.2 0 0.7 163
Savigliano 28-05-2020 07:00 11.9 85.9 0 0.7 166
Savigliano 28-05-2020 08:00 14.4 79.5 0 0 169
Savigliano 28-05-2020 09:00 18.1 68.4 0 0.4 193
Savigliano 28-05-2020 10:00 20.1 60.3 0 0.7 270
Savigliano 28-05-2020 11:00 22.1 55.9 0 0.7 222
Savigliano 28-05-2020 12:00 22.4 53.1 0 1.1 101
Savigliano 28-05-2020 13:00 22.5 50.1 0 1.8 127
Savigliano 28-05-2020 14:00 23.3 45.6 0 1.8 111
Savigliano 28-05-2020 15:00 24.2 43.3 0 2.2 99
Savigliano 28-05-2020 16:00 25.2 36.4 0 1.4 129
Savigliano 28-05-2020 17:00 25.3 39.7 0 1.8 115
Savigliano 28-05-2020 18:00 25.5 44.3 0 2.5 110
Savigliano 28-05-2020 19:00 25 45.3 0 0.7 68
Savigliano 28-05-2020 20:00 24.7 46.9 0 0.4 41
Savigliano 28-05-2020 21:00 22.2 60.3 0 0.4 130
Savigliano 28-05-2020 22:00 19.8 67.4 0 1.4 129
Savigliano 28-05-2020 23:00 17.6 68.2 0 1.1 153
Savigliano 29-05-2020 00:00 17 74.3 0 2.2 164
Savigliano 29-05-2020 01:00 17.4 74.3 0 2.9 161
Savigliano 29-05-2020 02:00 16.9 80.3 0 1.4 166
Savigliano 29-05-2020 03:00 15.4 80.8 0 0.4 166
Savigliano 29-05-2020 04:00 14.6 83.7 0 0.4 164
Savigliano 29-05-2020 05:00 14.4 85 0 1.1 132
Savigliano 29-05-2020 06:00 14.3 81.6 0.2 1.1 76
Savigliano 29-05-2020 07:00 14.5 86.9 0 1.1 103
Savigliano 29-05-2020 08:00 14.3 87.1 0 1.4 135
Savigliano 29-05-2020 09:00 14.4 83.4 0 2.5 91
Savigliano 29-05-2020 10:00 14.5 80.2 0 2.9 116
Savigliano 29-05-2020 11:00 14.8 78.4 0 3.6 71
Savigliano 29-05-2020 12:00 14.9 76.9 0 2.9 98
Savigliano 29-05-2020 13:00 15.2 73.1 0 1.8 135
Savigliano 29-05-2020 14:00 15.8 69.5 0 1.4 58
Savigliano 29-05-2020 15:00 17.4 60.7 0 1.8 247
Savigliano 29-05-2020 16:00 19.5 58.9 0 2.2 262
Savigliano 29-05-2020 17:00 18.7 57.2 0 4 279
Savigliano 29-05-2020 18:00 18.8 57.3 0 5 270
Savigliano 29-05-2020 19:00 17.9 53.8 0 3.2 275
Savigliano 29-05-2020 20:00 17.3 52.1 0 2.5 273
Savigliano 29-05-2020 21:00 16.6 55.6 0 0.4 264
Savigliano 29-05-2020 22:00 14.8 66.5 0 0.4 257
Savigliano 29-05-2020 23:00 14.7 73.6 0 1.1 182
Savigliano 30-05-2020 00:00 12.4 79 0 0.7 174
Savigliano 30-05-2020 01:00 11.6 81 0 1.4 170
Savigliano 30-05-2020 02:00 11.7 80.2 0 0.7 183
Savigliano 30-05-2020 03:00 12.2 81.8 0 0.4 197
Savigliano 30-05-2020 04:00 10.4 85.4 0 0.7 183
Savigliano 30-05-2020 05:00 9.7 86 0 1.1 179
Savigliano 30-05-2020 06:00 9.4 85.9 0 1.8 169
Savigliano 30-05-2020 07:00 9.6 84.2 0 1.1 179
Savigliano 30-05-2020 08:00 12.2 78.6 0 0.4 194
Savigliano 30-05-2020 09:00 14 70.9 0 0.4 198
Savigliano 30-05-2020 10:00 17.2 59.1 0 1.1 144
Savigliano 30-05-2020 11:00 18 53.7 0 2.5 95
Savigliano 30-05-2020 12:00 19.8 44.8 0 3.6 95
Savigliano 30-05-2020 13:00 19.9 42.7 0 3.6 96
Savigliano 30-05-2020 14:00 21.9 37.1 0 2.2 136
Savigliano 30-05-2020 15:00 22.4 36.5 0 1.4 126
Savigliano 30-05-2020 16:00 22.4 35.9 0 2.5 134
Savigliano 30-05-2020 17:00 22.3 37.8 0 2.9 134
Savigliano 30-05-2020 18:00 22.8 36.8 0 1.8 174
Savigliano 30-05-2020 19:00 23 36.8 0 1.1 93
Savigliano 30-05-2020 20:00 21.1 43.4 0 0.7 274
Savigliano 30-05-2020 21:00 19.7 50.1 0 2.2 89
Savigliano 30-05-2020 22:00 18.2 56.3 0 1.8 101
Savigliano 30-05-2020 23:00 17.2 59.6 0 0.4 257
Savigliano 31-05-2020 00:00 17.3 62.4 0 0.4 263
Savigliano 31-05-2020 01:00 17.3 67.2 0 0 285
Savigliano 31-05-2020 02:00 16.7 67.9 0 0 311
Savigliano 31-05-2020 03:00 15 67.7 0 0 311
Savigliano 31-05-2020 04:00 14.6 74.1 0 0 310
Savigliano 31-05-2020 05:00 14.5 78 0 0 314
Savigliano 31-05-2020 06:00 14.9 80.7 0 0.4 327
Savigliano 31-05-2020 07:00 14.5 81.1 0 0.4 333
Savigliano 31-05-2020 08:00 14.4 80.9 0 0.7 1
Savigliano 31-05-2020 09:00 14.6 80.3 0 0.7 56
Savigliano 31-05-2020 10:00 14.9 75.4 0 0.7 125
Savigliano 31-05-2020 11:00 17.1 71.2 0 1.1 80
Savigliano 31-05-2020 12:00 18.5 63.4 0 2.2 115
Savigliano 31-05-2020 13:00 19.8 60 0 1.4 134
Savigliano 31-05-2020 14:00 20.3 56.6 0 1.4 224
Savigliano 31-05-2020 15:00 19.8 55.9 0 1.1 162
Savigliano 31-05-2020 16:00 21.6 50.2 0 1.4 203
Savigliano 31-05-2020 17:00 19.7 52.6 0 2.2 82
Savigliano 31-05-2020 18:00 22.1 48.8 0 1.1 121
Savigliano 31-05-2020 19:00 21.2 53.7 0 0.4 58
Savigliano 31-05-2020 20:00 20.4 53.2 0 0.7 115
Savigliano 31-05-2020 21:00 19.8 58.5 0 0.4 270
Savigliano 31-05-2020 22:00 17.6 67.3 0 0 289
Savigliano 31-05-2020 23:00 17.1 69.1 0 0.4 286
Savigliano 01-06-2020 00:00 15.7 75.8 0 0.7 237
Savigliano 01-06-2020 01:00 15 80.9 0 0.4 171
Savigliano 01-06-2020 02:00 13.8 81.8 0 0.4 166
Savigliano 01-06-2020 03:00 11.9 86.4 0 1.1 154
Savigliano 01-06-2020 04:00 11.8 85.3 0 0.4 178
Savigliano 01-06-2020 05:00 12.3 85.8 0 0.4 181
Savigliano 01-06-2020 06:00 12.9 84.6 0 0.4 187
Savigliano 01-06-2020 07:00 14.6 80.1 0 0.4 279
Savigliano 01-06-2020 08:00 14.7 79.9 0 0 275
Savigliano 01-06-2020 09:00 16.4 77.2 0 0.4 296
Savigliano 01-06-2020 10:00 17.5 74.3 0 0.4 332
Savigliano 01-06-2020 11:00 20 67.6 0 1.1 83
Savigliano 01-06-2020 12:00 21.1 61.9 0 2.2 104
Savigliano 01-06-2020 13:00 21.7 56.4 0 2.5 92
Savigliano 01-06-2020 14:00 23.7 47.9 0 2.2 162
Savigliano 01-06-2020 15:00 23.1 46 0 2.2 123
Savigliano 01-06-2020 16:00 25.1 44.6 0 1.1 99
Savigliano 01-06-2020 17:00 25.1 44.9 0 1.1 146
Savigliano 01-06-2020 18:00 25 42.1 0 1.1 107
Savigliano 01-06-2020 19:00 23.5 44.9 0 1.8 80
Savigliano 01-06-2020 20:00 22.5 49 0 1.1 72
Savigliano 01-06-2020 21:00 21.3 58 0 2.2 102
Savigliano 01-06-2020 22:00 19.9 66.3 0 0.4 127
Savigliano 01-06-2020 23:00 19.8 68 0 0 180
Savigliano 02-06-2020 00:00 17.1 74.1 0 0 164
Savigliano 02-06-2020 01:00 17.4 74.2 0 0 179
Savigliano 02-06-2020 02:00 17.1 74.5 0 0 208
Savigliano 02-06-2020 03:00 15.2 80.1 0 0.4 183
Savigliano 02-06-2020 04:00 14.9 83.9 0 0 174
Savigliano 02-06-2020 05:00 14.5 86.3 0 0.4 172
Savigliano 02-06-2020 06:00 14.3 86.8 0 0 169
Savigliano 02-06-2020 07:00 14.6 84.7 0 0 169
Savigliano 02-06-2020 08:00 16.8 77.9 0 0.4 166
Savigliano 02-06-2020 09:00 19.7 69.9 0 1.4 158
Savigliano 02-06-2020 10:00 22.3 60.3 0 0.7 170
Savigliano 02-06-2020 11:00 23.6 55 0 1.4 48
Savigliano 02-06-2020 12:00 24.2 50.1 0 2.2 123
Savigliano 02-06-2020 13:00 25 45.4 0 2.5 121
Savigliano 02-06-2020 14:00 26.3 41.8 0 2.5 140
Savigliano 02-06-2020 15:00 25.7 39.7 0 3.6 97
Savigliano 02-06-2020 16:00 27.3 37.4 0 3.6 87
Savigliano 02-06-2020 17:00 27.5 33.6 0 2.2 100
Savigliano 02-06-2020 18:00 27.6 30.2 0 0.4 255
Savigliano 02-06-2020 19:00 25.3 40.2 0 1.4 206
Savigliano 02-06-2020 20:00 23 58.4 0 2.5 82
Savigliano 02-06-2020 21:00 22.2 61.5 0 1.4 148
Savigliano 02-06-2020 22:00 19.9 68.9 0 1.1 164
Savigliano 02-06-2020 23:00 19.7 74 0 0.7 153
Savigliano 03-06-2020 00:00 17.5 73.8 0 1.4 88
Savigliano 03-06-2020 01:00 17 78.6 0 1.1 248
Savigliano 03-06-2020 02:00 16.5 81.2 0 1.4 184
Savigliano 03-06-2020 03:00 14.6 86.5 0 3.2 227
Savigliano 03-06-2020 04:00 14.9 86.7 0 1.4 124
Savigliano 03-06-2020 05:00 14.8 86.7 0 1.4 94
Savigliano 03-06-2020 06:00 15 86.4 0 0.4 76
Savigliano 03-06-2020 07:00 14.6 86.6 0 1.4 130
Savigliano 03-06-2020 08:00 15.9 83.2 0 0 183
Savigliano 03-06-2020 09:00 19.2 71.7 0 0.4 169
Savigliano 03-06-2020 10:00 20.6 66.4 0 1.1 249
Savigliano 03-06-2020 11:00 22.3 61 0 1.4 197
Savigliano 03-06-2020 12:00 22.4 61.3 0 3.2 88
Savigliano 03-06-2020 13:00 22.4 60.2 0 4.7 80
Savigliano 03-06-2020 14:00 24 55.2 0 2.9 108
Savigliano 03-06-2020 15:00 22.7 58.8 0 3.2 84
Savigliano 03-06-2020 16:00 24.2 58 0 4 69
Savigliano 29-05-2020 05:50 0 0 0.2 0 0
Savigliano 29-05-2020 05:55 0 0 0.5 0 0
Savigliano 29-05-2020 06:05 0 0 0.1 0 0
Savigliano 03-06-2020 01:10 0 0 0.3 0 0
Savigliano 03-06-2020 01:15 0 0 0.1 0 0
Savigliano 03-06-2020 01:35 0 0 0.2 0 0
Savigliano 03-06-2020 01:40 0 0 0.4 0 0
Savigliano 03-06-2020 01:45 0 0 0.2 0 0
Savigliano 03-06-2020 01:50 0 0 0.1 0 0
Savigliano 03-06-2020 11:10 0 0 0.1 0 0

Riassuntivo giornaliero del 03-06-2020